sensor_id;sensor_type;location;lat;lon;timestamp;pressure;altitude;pressure_sealevel;temperature;humidity
9822;BME280;4950;46.042;14.472;2022-07-05T00:00:03;97938.28;;;25.47;64.75
9822;BME280;4950;46.042;14.472;2022-07-05T00:02:30;97946.53;;;25.40;65.32
9822;BME280;4950;46.042;14.472;2022-07-05T00:04:58;97963.03;;;25.37;65.40
9822;BME280;4950;46.042;14.472;2022-07-05T00:07:25;97970.72;;;25.23;65.85
9822;BME280;4950;46.042;14.472;2022-07-05T00:09:53;97980.00;;;25.15;66.51
9822;BME280;4950;46.042;14.472;2022-07-05T00:12:23;97977.09;;;25.17;66.24
9822;BME280;4950;46.042;14.472;2022-07-05T00:14:50;97960.09;;;25.08;66.29
9822;BME280;4950;46.042;14.472;2022-07-05T00:17:17;97950.00;;;25.05;65.65
9822;BME280;4950;46.042;14.472;2022-07-05T00:19:44;97963.03;;;24.96;65.82
9822;BME280;4950;46.042;14.472;2022-07-05T00:22:12;97954.53;;;24.89;66.67
9822;BME280;4950;46.042;14.472;2022-07-05T00:24:39;97954.75;;;24.82;66.85
9822;BME280;4950;46.042;14.472;2022-07-05T00:27:05;97954.75;;;24.82;67.11
9822;BME280;4950;46.042;14.472;2022-07-05T00:29:32;97955.03;;;24.86;67.40
9822;BME280;4950;46.042;14.472;2022-07-05T00:31:59;97955.84;;;24.81;67.18
9822;BME280;4950;46.042;14.472;2022-07-05T00:34:25;97953.72;;;24.83;67.74
9822;BME280;4950;46.042;14.472;2022-07-05T00:36:52;97944.69;;;24.79;67.83
9822;BME280;4950;46.042;14.472;2022-07-05T00:39:20;97934.31;;;24.72;68.39
9822;BME280;4950;46.042;14.472;2022-07-05T00:41:47;97922.09;;;24.71;68.40
9822;BME280;4950;46.042;14.472;2022-07-05T00:44:14;97913.88;;;24.68;67.87
9822;BME280;4950;46.042;14.472;2022-07-05T00:46:43;97908.28;;;24.64;68.86
9822;BME280;4950;46.042;14.472;2022-07-05T00:49:10;97905.66;;;24.59;68.33
9822;BME280;4950;46.042;14.472;2022-07-05T00:51:37;97915.16;;;24.50;68.00
9822;BME280;4950;46.042;14.472;2022-07-05T00:54:05;97927.88;;;24.42;68.45
9822;BME280;4950;46.042;14.472;2022-07-05T00:56:34;97932.91;;;24.29;68.96
9822;BME280;4950;46.042;14.472;2022-07-05T00:59:00;97934.41;;;24.04;70.46
9822;BME280;4950;46.042;14.472;2022-07-05T01:01:27;97932.16;;;23.75;72.30
9822;BME280;4950;46.042;14.472;2022-07-05T01:03:54;97938.63;;;23.42;73.84
9822;BME280;4950;46.042;14.472;2022-07-05T01:06:21;97944.31;;;23.23;74.81
9822;BME280;4950;46.042;14.472;2022-07-05T01:08:48;97952.78;;;23.20;75.00
9822;BME280;4950;46.042;14.472;2022-07-05T01:11:16;97955.16;;;23.22;75.35
9822;BME280;4950;46.042;14.472;2022-07-05T01:13:44;97949.00;;;23.11;76.56
9822;BME280;4950;46.042;14.472;2022-07-05T01:16:12;97945.84;;;23.14;76.77
9822;BME280;4950;46.042;14.472;2022-07-05T01:18:39;97953.81;;;23.14;76.52
9822;BME280;4950;46.042;14.472;2022-07-05T01:21:06;97956.16;;;23.11;77.22
9822;BME280;4950;46.042;14.472;2022-07-05T01:23:35;97950.16;;;22.93;78.17
9822;BME280;4950;46.042;14.472;2022-07-05T01:26:01;97952.03;;;22.98;77.64
9822;BME280;4950;46.042;14.472;2022-07-05T01:28:29;97961.66;;;22.77;78.15
9822;BME280;4950;46.042;14.472;2022-07-05T01:30:55;97969.00;;;22.42;79.45
9822;BME280;4950;46.042;14.472;2022-07-05T01:33:27;97986.50;;;22.04;81.34
9822;BME280;4950;46.042;14.472;2022-07-05T01:35:54;97977.16;;;21.75;81.62
9822;BME280;4950;46.042;14.472;2022-07-05T01:38:21;97984.88;;;21.59;82.32
9822;BME280;4950;46.042;14.472;2022-07-05T01:40:49;98003.69;;;21.29;82.87
9822;BME280;4950;46.042;14.472;2022-07-05T01:43:17;98004.00;;;21.16;82.92
9822;BME280;4950;46.042;14.472;2022-07-05T01:45:45;97995.66;;;21.07;84.30
9822;BME280;4950;46.042;14.472;2022-07-05T01:48:13;97984.81;;;21.03;83.99
9822;BME280;4950;46.042;14.472;2022-07-05T01:50:42;97977.81;;;20.97;84.70
9822;BME280;4950;46.042;14.472;2022-07-05T01:53:14;97971.44;;;21.10;83.65
9822;BME280;4950;46.042;14.472;2022-07-05T01:55:43;97973.50;;;21.08;83.61
9822;BME280;4950;46.042;14.472;2022-07-05T01:58:12;97971.34;;;21.05;84.74
9822;BME280;4950;46.042;14.472;2022-07-05T02:00:43;97960.53;;;21.06;84.34
9822;BME280;4950;46.042;14.472;2022-07-05T02:03:11;97962.09;;;21.19;84.45
9822;BME280;4950;46.042;14.472;2022-07-05T02:05:38;97970.72;;;21.32;84.21
9822;BME280;4950;46.042;14.472;2022-07-05T02:08:05;97983.25;;;21.41;83.44
9822;BME280;4950;46.042;14.472;2022-07-05T02:10:31;97990.97;;;21.43;82.52
9822;BME280;4950;46.042;14.472;2022-07-05T02:12:58;97986.81;;;21.47;82.37
9822;BME280;4950;46.042;14.472;2022-07-05T02:15:26;97981.84;;;21.51;81.87
9822;BME280;4950;46.042;14.472;2022-07-05T02:17:53;98007.63;;;21.60;81.79
9822;BME280;4950;46.042;14.472;2022-07-05T02:20:19;98007.75;;;21.71;81.79
9822;BME280;4950;46.042;14.472;2022-07-05T02:22:46;98012.84;;;21.77;81.83
9822;BME280;4950;46.042;14.472;2022-07-05T02:25:13;98015.09;;;21.85;81.63
9822;BME280;4950;46.042;14.472;2022-07-05T02:27:39;98026.28;;;21.93;81.35
9822;BME280;4950;46.042;14.472;2022-07-05T02:30:07;98023.41;;;21.94;80.79
9822;BME280;4950;46.042;14.472;2022-07-05T02:32:35;98031.34;;;21.94;81.15
9822;BME280;4950;46.042;14.472;2022-07-05T02:35:03;98046.22;;;22.00;81.05
9822;BME280;4950;46.042;14.472;2022-07-05T02:37:30;98035.66;;;22.00;81.33
9822;BME280;4950;46.042;14.472;2022-07-05T02:39:56;98016.81;;;21.97;81.37
9822;BME280;4950;46.042;14.472;2022-07-05T02:42:23;98001.78;;;21.97;82.10
9822;BME280;4950;46.042;14.472;2022-07-05T02:44:50;97983.56;;;22.01;82.22
9822;BME280;4950;46.042;14.472;2022-07-05T02:47:16;97997.16;;;22.09;81.29
9822;BME280;4950;46.042;14.472;2022-07-05T02:49:45;98001.91;;;22.07;82.06
9822;BME280;4950;46.042;14.472;2022-07-05T02:52:11;98005.84;;;22.05;82.72
9822;BME280;4950;46.042;14.472;2022-07-05T02:54:38;98023.53;;;22.04;82.48
9822;BME280;4950;46.042;14.472;2022-07-05T02:57:05;98031.84;;;22.13;82.67
9822;BME280;4950;46.042;14.472;2022-07-05T02:59:32;98039.00;;;22.13;82.22
9822;BME280;4950;46.042;14.472;2022-07-05T03:01:59;98016.16;;;22.06;82.49
9822;BME280;4950;46.042;14.472;2022-07-05T03:04:25;97995.75;;;22.02;82.21
9822;BME280;4950;46.042;14.472;2022-07-05T03:06:53;97979.56;;;21.98;82.12
9822;BME280;4950;46.042;14.472;2022-07-05T03:09:20;97975.06;;;21.99;81.97
9822;BME280;4950;46.042;14.472;2022-07-05T03:11:47;97947.28;;;21.96;81.54
9822;BME280;4950;46.042;14.472;2022-07-05T03:14:13;97922.94;;;21.94;82.12
9822;BME280;4950;46.042;14.472;2022-07-05T03:16:40;97909.28;;;22.02;81.83
9822;BME280;4950;46.042;14.472;2022-07-05T03:19:09;97918.28;;;22.01;81.68
9822;BME280;4950;46.042;14.472;2022-07-05T03:21:36;97940.53;;;21.83;81.43
9822;BME280;4950;46.042;14.472;2022-07-05T03:24:05;97944.69;;;21.57;82.99
9822;BME280;4950;46.042;14.472;2022-07-05T03:26:32;97954.94;;;21.54;84.37
9822;BME280;4950;46.042;14.472;2022-07-05T03:28:58;97962.63;;;21.55;84.55
9822;BME280;4950;46.042;14.472;2022-07-05T03:31:25;97967.44;;;21.58;84.57
9822;BME280;4950;46.042;14.472;2022-07-05T03:33:51;97974.16;;;21.66;83.73
9822;BME280;4950;46.042;14.472;2022-07-05T03:36:18;97975.25;;;21.70;83.71
9822;BME280;4950;46.042;14.472;2022-07-05T03:38:45;97975.25;;;21.70;83.75
9822;BME280;4950;46.042;14.472;2022-07-05T03:41:13;97980.84;;;21.74;83.81
9822;BME280;4950;46.042;14.472;2022-07-05T03:43:40;97981.41;;;21.76;84.05
9822;BME280;4950;46.042;14.472;2022-07-05T03:46:06;97989.34;;;21.76;83.62
9822;BME280;4950;46.042;14.472;2022-07-05T03:48:33;97994.88;;;21.74;84.16
9822;BME280;4950;46.042;14.472;2022-07-05T03:51:00;97999.81;;;21.71;84.47
9822;BME280;4950;46.042;14.472;2022-07-05T03:53:27;97999.28;;;21.68;84.56
9822;BME280;4950;46.042;14.472;2022-07-05T03:55:54;98003.59;;;21.58;84.86
9822;BME280;4950;46.042;14.472;2022-07-05T03:58:22;98007.63;;;21.60;84.69
9822;BME280;4950;46.042;14.472;2022-07-05T04:00:48;98012.97;;;21.65;84.44
9822;BME280;4950;46.042;14.472;2022-07-05T04:03:15;98005.78;;;21.61;84.27
9822;BME280;4950;46.042;14.472;2022-07-05T04:05:42;98011.47;;;21.53;85.06
9822;BME280;4950;46.042;14.472;2022-07-05T04:08:08;98013.34;;;21.40;85.52
9822;BME280;4950;46.042;14.472;2022-07-05T04:10:35;98011.06;;;21.27;86.08
9822;BME280;4950;46.042;14.472;2022-07-05T04:13:02;98009.13;;;21.22;86.72
9822;BME280;4950;46.042;14.472;2022-07-05T04:15:30;98015.94;;;21.35;86.51
9822;BME280;4950;46.042;14.472;2022-07-05T04:17:56;98019.38;;;21.36;86.64
9822;BME280;4950;46.042;14.472;2022-07-05T04:20:23;98030.16;;;21.34;86.73
9822;BME280;4950;46.042;14.472;2022-07-05T04:22:51;98024.75;;;21.41;86.26
9822;BME280;4950;46.042;14.472;2022-07-05T04:25:18;98021.47;;;21.51;85.96
9822;BME280;4950;46.042;14.472;2022-07-05T04:27:45;98019.91;;;21.38;85.92
9822;BME280;4950;46.042;14.472;2022-07-05T04:30:12;98013.78;;;21.15;86.96
9822;BME280;4950;46.042;14.472;2022-07-05T04:32:41;98021.16;;;20.84;88.73
9822;BME280;4950;46.042;14.472;2022-07-05T04:35:08;98021.44;;;20.71;89.81
9822;BME280;4950;46.042;14.472;2022-07-05T04:37:36;98034.53;;;20.66;89.46
9822;BME280;4950;46.042;14.472;2022-07-05T04:40:04;98040.38;;;20.56;90.41
9822;BME280;4950;46.042;14.472;2022-07-05T04:42:31;98032.41;;;20.51;90.79
9822;BME280;4950;46.042;14.472;2022-07-05T04:44:57;98031.09;;;20.54;90.41
9822;BME280;4950;46.042;14.472;2022-07-05T04:47:24;98027.75;;;20.58;90.38
9822;BME280;4950;46.042;14.472;2022-07-05T04:49:53;98033.50;;;20.67;90.40
9822;BME280;4950;46.042;14.472;2022-07-05T04:52:20;98036.72;;;20.69;90.21
9822;BME280;4950;46.042;14.472;2022-07-05T04:54:47;98042.31;;;20.73;89.88
9822;BME280;4950;46.042;14.472;2022-07-05T04:57:13;98043.13;;;20.73;89.75
9822;BME280;4950;46.042;14.472;2022-07-05T04:59:40;98048.41;;;20.73;90.12
9822;BME280;4950;46.042;14.472;2022-07-05T05:02:07;98056.41;;;20.78;90.32
9822;BME280;4950;46.042;14.472;2022-07-05T05:04:34;98045.94;;;20.83;89.77
9822;BME280;4950;46.042;14.472;2022-07-05T05:07:02;98048.22;;;20.92;89.17
9822;BME280;4950;46.042;14.472;2022-07-05T05:09:29;98044.69;;;21.03;89.15
9822;BME280;4950;46.042;14.472;2022-07-05T05:11:56;98053.84;;;21.12;88.59
9822;BME280;4950;46.042;14.472;2022-07-05T05:14:23;98047.13;;;21.21;87.95
9822;BME280;4950;46.042;14.472;2022-07-05T05:16:49;98043.31;;;21.29;87.86
9822;BME280;4950;46.042;14.472;2022-07-05T05:19:16;98047.63;;;21.35;87.50
9822;BME280;4950;46.042;14.472;2022-07-05T05:21:43;98040.34;;;21.42;86.79
9822;BME280;4950;46.042;14.472;2022-07-05T05:24:11;98045.81;;;21.53;87.09
9822;BME280;4950;46.042;14.472;2022-07-05T05:26:38;98040.84;;;21.56;86.92
9822;BME280;4950;46.042;14.472;2022-07-05T05:29:04;98039.38;;;21.65;86.47
9822;BME280;4950;46.042;14.472;2022-07-05T05:31:31;98033.94;;;21.72;85.19
9822;BME280;4950;46.042;14.472;2022-07-05T05:33:58;98034.28;;;21.76;84.70
9822;BME280;4950;46.042;14.472;2022-07-05T05:36:24;98031.34;;;21.77;84.75
9822;BME280;4950;46.042;14.472;2022-07-05T05:38:51;98031.63;;;21.76;84.57
9822;BME280;4950;46.042;14.472;2022-07-05T05:41:19;98022.41;;;21.78;84.63
9822;BME280;4950;46.042;14.472;2022-07-05T05:43:46;98031.69;;;21.81;84.63
9822;BME280;4950;46.042;14.472;2022-07-05T05:46:13;98030.16;;;21.85;84.67
9822;BME280;4950;46.042;14.472;2022-07-05T05:48:39;98035.75;;;21.88;84.46
9822;BME280;4950;46.042;14.472;2022-07-05T05:51:06;98033.50;;;21.97;84.52
9822;BME280;4950;46.042;14.472;2022-07-05T05:53:33;98021.63;;;22.00;84.61
9822;BME280;4950;46.042;14.472;2022-07-05T05:55:59;98033.00;;;22.00;84.34
9822;BME280;4950;46.042;14.472;2022-07-05T05:58:27;98038.28;;;22.00;84.43
9822;BME280;4950;46.042;14.472;2022-07-05T06:00:54;98039.59;;;21.98;84.74
9822;BME280;4950;46.042;14.472;2022-07-05T06:03:25;98034.66;;;22.06;85.02
9822;BME280;4950;46.042;14.472;2022-07-05T06:05:52;98031.06;;;22.13;85.53
9822;BME280;4950;46.042;14.472;2022-07-05T06:08:19;98034.25;;;22.15;85.82
9822;BME280;4950;46.042;14.472;2022-07-05T06:10:46;98025.03;;;22.17;85.17
9822;BME280;4950;46.042;14.472;2022-07-05T06:13:13;98028.06;;;22.26;84.91
9822;BME280;4950;46.042;14.472;2022-07-05T06:15:42;98025.28;;;22.38;83.80
9822;BME280;4950;46.042;14.472;2022-07-05T06:18:10;98022.09;;;22.36;83.97
9822;BME280;4950;46.042;14.472;2022-07-05T06:20:38;98022.06;;;22.31;84.00
9822;BME280;4950;46.042;14.472;2022-07-05T06:23:06;98025.06;;;22.22;83.72
9822;BME280;4950;46.042;14.472;2022-07-05T06:25:33;98026.00;;;22.11;83.45
9822;BME280;4950;46.042;14.472;2022-07-05T06:28:02;98026.00;;;22.11;84.40
9822;BME280;4950;46.042;14.472;2022-07-05T06:30:31;98027.91;;;22.16;84.81
9822;BME280;4950;46.042;14.472;2022-07-05T06:32:59;98025.28;;;22.16;86.51
9822;BME280;4950;46.042;14.472;2022-07-05T06:35:26;98020.56;;;22.01;85.78
9822;BME280;4950;46.042;14.472;2022-07-05T06:37:54;98021.41;;;22.01;86.06
9822;BME280;4950;46.042;14.472;2022-07-05T06:40:23;98028.28;;;22.02;86.68
9822;BME280;4950;46.042;14.472;2022-07-05T06:42:50;98022.00;;;22.08;86.52
9822;BME280;4950;46.042;14.472;2022-07-05T06:45:19;98024.03;;;22.01;86.05
9822;BME280;4950;46.042;14.472;2022-07-05T06:47:53;98018.78;;;22.06;86.22
9822;BME280;4950;46.042;14.472;2022-07-05T06:50:22;98026.19;;;22.04;85.76
9822;BME280;4950;46.042;14.472;2022-07-05T06:52:48;98014.63;;;22.11;85.41
9822;BME280;4950;46.042;14.472;2022-07-05T06:55:15;98012.63;;;22.01;84.50
9822;BME280;4950;46.042;14.472;2022-07-05T06:57:42;98013.25;;;21.86;86.13
9822;BME280;4950;46.042;14.472;2022-07-05T07:00:11;98014.16;;;21.75;86.97
9822;BME280;4950;46.042;14.472;2022-07-05T07:02:38;98023.69;;;21.76;87.55
9822;BME280;4950;46.042;14.472;2022-07-05T07:05:06;98010.16;;;21.72;87.98
9822;BME280;4950;46.042;14.472;2022-07-05T07:07:43;98022.63;;;21.77;87.28
9822;BME280;4950;46.042;14.472;2022-07-05T07:10:27;98029.75;;;21.93;86.30
9822;BME280;4950;46.042;14.472;2022-07-05T07:12:54;98028.28;;;22.02;85.61
9822;BME280;4950;46.042;14.472;2022-07-05T07:15:21;98032.16;;;22.17;85.40
9822;BME280;4950;46.042;14.472;2022-07-05T07:17:48;98025.91;;;22.23;84.71
9822;BME280;4950;46.042;14.472;2022-07-05T07:20:14;98028.88;;;22.26;84.52
9822;BME280;4950;46.042;14.472;2022-07-05T07:22:43;98033.97;;;22.33;84.59
9822;BME280;4950;46.042;14.472;2022-07-05T07:25:10;98031.13;;;22.40;83.32
9822;BME280;4950;46.042;14.472;2022-07-05T07:27:43;98037.81;;;22.42;83.09
9822;BME280;4950;46.042;14.472;2022-07-05T07:30:12;98034.16;;;22.48;82.45
9822;BME280;4950;46.042;14.472;2022-07-05T07:32:39;98035.16;;;22.42;82.66
9822;BME280;4950;46.042;14.472;2022-07-05T07:35:07;98030.41;;;22.44;82.31
9822;BME280;4950;46.042;14.472;2022-07-05T07:37:34;98036.91;;;22.59;82.77
9822;BME280;4950;46.042;14.472;2022-07-05T07:40:03;98030.91;;;22.63;82.60
9822;BME280;4950;46.042;14.472;2022-07-05T07:42:30;98033.88;;;22.72;82.34
9822;BME280;4950;46.042;14.472;2022-07-05T07:44:57;98034.03;;;22.87;83.41
9822;BME280;4950;46.042;14.472;2022-07-05T07:47:24;98035.38;;;22.90;80.84
9822;BME280;4950;46.042;14.472;2022-07-05T07:49:50;98038.19;;;22.78;82.17
9822;BME280;4950;46.042;14.472;2022-07-05T07:52:17;98033.44;;;22.80;82.69
9822;BME280;4950;46.042;14.472;2022-07-05T07:54:44;98029.78;;;22.86;82.29
9822;BME280;4950;46.042;14.472;2022-07-05T07:57:12;98033.16;;;23.04;82.35
9822;BME280;4950;46.042;14.472;2022-07-05T07:59:39;98028.94;;;23.08;81.89
9822;BME280;4950;46.042;14.472;2022-07-05T08:02:06;98021.59;;;23.15;81.02
9822;BME280;4950;46.042;14.472;2022-07-05T08:04:33;98028.22;;;23.13;79.86
9822;BME280;4950;46.042;14.472;2022-07-05T08:06:59;98025.19;;;23.04;80.59
9822;BME280;4950;46.042;14.472;2022-07-05T08:09:28;98020.03;;;23.19;79.22
9822;BME280;4950;46.042;14.472;2022-07-05T08:11:56;98014.25;;;23.22;79.90
9822;BME280;4950;46.042;14.472;2022-07-05T08:14:24;98010.13;;;23.37;80.37
9822;BME280;4950;46.042;14.472;2022-07-05T08:16:51;98012.38;;;23.55;78.53
9822;BME280;4950;46.042;14.472;2022-07-05T08:19:18;98013.19;;;23.61;78.27
9822;BME280;4950;46.042;14.472;2022-07-05T08:22:03;98019.84;;;23.69;78.55
9822;BME280;4950;46.042;14.472;2022-07-05T08:24:30;98021.19;;;23.66;76.89
9822;BME280;4950;46.042;14.472;2022-07-05T08:26:57;98016.66;;;23.61;77.12
9822;BME280;4950;46.042;14.472;2022-07-05T08:29:25;98013.75;;;23.68;77.68
9822;BME280;4950;46.042;14.472;2022-07-05T08:31:52;98012.81;;;23.79;77.84
9822;BME280;4950;46.042;14.472;2022-07-05T08:34:19;98010.50;;;23.93;77.29
9822;BME280;4950;46.042;14.472;2022-07-05T08:36:46;98012.69;;;24.07;74.31
9822;BME280;4950;46.042;14.472;2022-07-05T08:39:14;98021.19;;;24.14;74.85
9822;BME280;4950;46.042;14.472;2022-07-05T08:41:42;98010.34;;;24.20;74.12
9822;BME280;4950;46.042;14.472;2022-07-05T08:44:09;98021.00;;;24.31;71.40
9822;BME280;4950;46.042;14.472;2022-07-05T08:46:39;98016.75;;;24.35;72.05
9822;BME280;4950;46.042;14.472;2022-07-05T08:49:06;98024.25;;;24.48;71.47
9822;BME280;4950;46.042;14.472;2022-07-05T08:51:37;98014.22;;;24.55;71.44
9822;BME280;4950;46.042;14.472;2022-07-05T08:54:04;98026.69;;;24.60;71.46
9822;BME280;4950;46.042;14.472;2022-07-05T08:56:34;98016.91;;;24.71;71.29
9822;BME280;4950;46.042;14.472;2022-07-05T08:59:01;98023.28;;;24.80;68.69
9822;BME280;4950;46.042;14.472;2022-07-05T09:01:29;98029.66;;;24.84;68.53
9822;BME280;4950;46.042;14.472;2022-07-05T09:04:03;98023.84;;;24.92;68.68
9822;BME280;4950;46.042;14.472;2022-07-05T09:06:32;98029.44;;;25.01;68.82
9822;BME280;4950;46.042;14.472;2022-07-05T09:08:59;98031.03;;;25.02;68.57
9822;BME280;4950;46.042;14.472;2022-07-05T09:11:31;98034.75;;;25.11;68.22
9822;BME280;4950;46.042;14.472;2022-07-05T09:14:02;98026.50;;;25.13;67.70
9822;BME280;4950;46.042;14.472;2022-07-05T09:16:29;98032.09;;;25.16;67.33
9822;BME280;4950;46.042;14.472;2022-07-05T09:18:56;98030.75;;;25.19;67.90
9822;BME280;4950;46.042;14.472;2022-07-05T09:21:27;98032.94;;;25.37;67.42
9822;BME280;4950;46.042;14.472;2022-07-05T09:23:54;98029.72;;;25.46;67.50
9822;BME280;4950;46.042;14.472;2022-07-05T09:26:27;98034.25;;;25.45;66.87
9822;BME280;4950;46.042;14.472;2022-07-05T09:28:57;98024.66;;;25.44;67.64
9822;BME280;4950;46.042;14.472;2022-07-05T09:31:28;98022.53;;;25.46;68.49
9822;BME280;4950;46.042;14.472;2022-07-05T09:34:05;98041.16;;;25.56;67.44
9822;BME280;4950;46.042;14.472;2022-07-05T09:36:51;98027.06;;;25.51;67.67
9822;BME280;4950;46.042;14.472;2022-07-05T09:39:18;98027.06;;;25.61;68.60
9822;BME280;4950;46.042;14.472;2022-07-05T09:42:12;98036.59;;;25.62;67.00
9822;BME280;4950;46.042;14.472;2022-07-05T09:44:41;98027.56;;;25.58;68.01
9822;BME280;4950;46.042;14.472;2022-07-05T09:47:09;98019.59;;;25.63;68.47
9822;BME280;4950;46.042;14.472;2022-07-05T09:49:38;98026.50;;;25.69;68.48
9822;BME280;4950;46.042;14.472;2022-07-05T09:52:06;98019.84;;;25.72;67.64
9822;BME280;4950;46.042;14.472;2022-07-05T09:54:33;98024.88;;;25.84;65.69
9822;BME280;4950;46.042;14.472;2022-07-05T09:56:59;98020.34;;;25.94;66.58
9822;BME280;4950;46.042;14.472;2022-07-05T09:59:26;98017.16;;;25.92;65.28
9822;BME280;4950;46.042;14.472;2022-07-05T10:01:53;98021.41;;;25.93;65.58
9822;BME280;4950;46.042;14.472;2022-07-05T10:04:20;98016.56;;;26.16;63.73
9822;BME280;4950;46.042;14.472;2022-07-05T10:06:46;98013.78;;;26.36;62.05
9822;BME280;4950;46.042;14.472;2022-07-05T10:09:15;98009.25;;;26.42;62.18
9822;BME280;4950;46.042;14.472;2022-07-05T10:11:45;98011.00;;;26.67;60.83
9822;BME280;4950;46.042;14.472;2022-07-05T10:14:15;98011.00;;;26.67;61.77
9822;BME280;4950;46.042;14.472;2022-07-05T10:16:48;98006.16;;;26.74;61.55
9822;BME280;4950;46.042;14.472;2022-07-05T10:19:19;98003.41;;;26.90;61.07
9822;BME280;4950;46.042;14.472;2022-07-05T10:21:47;98006.59;;;26.92;62.49
9822;BME280;4950;46.042;14.472;2022-07-05T10:24:17;97990.94;;;27.14;57.86
9822;BME280;4950;46.042;14.472;2022-07-05T10:26:46;97990.13;;;27.19;59.45
9822;BME280;4950;46.042;14.472;2022-07-05T10:29:14;97983.47;;;27.46;59.62
9822;BME280;4950;46.042;14.472;2022-07-05T10:31:43;97984.00;;;27.48;58.81
9822;BME280;4950;46.042;14.472;2022-07-05T10:34:09;97991.44;;;27.51;58.41
9822;BME280;4950;46.042;14.472;2022-07-05T10:36:38;97985.09;;;27.47;58.35
9822;BME280;4950;46.042;14.472;2022-07-05T10:39:06;97985.31;;;27.50;57.94
9822;BME280;4950;46.042;14.472;2022-07-05T10:41:35;97982.03;;;27.34;58.45
9822;BME280;4950;46.042;14.472;2022-07-05T10:44:04;97980.41;;;27.33;57.72
9822;BME280;4950;46.042;14.472;2022-07-05T10:46:35;97982.41;;;27.17;59.02
9822;BME280;4950;46.042;14.472;2022-07-05T10:49:14;97976.22;;;27.27;58.51
9822;BME280;4950;46.042;14.472;2022-07-05T10:51:42;97967.78;;;27.44;57.50
9822;BME280;4950;46.042;14.472;2022-07-05T10:54:09;97965.47;;;27.62;57.38
9822;BME280;4950;46.042;14.472;2022-07-05T10:56:37;97966.50;;;27.66;57.70
9822;BME280;4950;46.042;14.472;2022-07-05T10:59:06;97957.41;;;27.67;57.73
9822;BME280;4950;46.042;14.472;2022-07-05T11:01:36;97967.34;;;27.85;58.25
9822;BME280;4950;46.042;14.472;2022-07-05T11:04:27;97966.16;;;27.96;56.42
9822;BME280;4950;46.042;14.472;2022-07-05T11:06:58;97971.88;;;27.85;56.30
9822;BME280;4950;46.042;14.472;2022-07-05T11:09:24;97970.28;;;27.84;55.65
9822;BME280;4950;46.042;14.472;2022-07-05T11:12:17;97975.63;;;27.84;55.64
9822;BME280;4950;46.042;14.472;2022-07-05T11:14:47;97966.09;;;27.77;55.47
9822;BME280;4950;46.042;14.472;2022-07-05T11:17:23;97969.38;;;27.99;54.10
9822;BME280;4950;46.042;14.472;2022-07-05T11:20:12;97972.22;;;28.02;54.00
9822;BME280;4950;46.042;14.472;2022-07-05T11:22:41;97971.97;;;28.23;54.67
9822;BME280;4950;46.042;14.472;2022-07-05T11:25:10;97966.41;;;28.19;54.41
9822;BME280;4950;46.042;14.472;2022-07-05T11:27:59;97968.59;;;28.17;54.41
9822;BME280;4950;46.042;14.472;2022-07-05T11:30:26;97965.22;;;28.06;53.99
9822;BME280;4950;46.042;14.472;2022-07-05T11:32:53;97979.59;;;27.86;54.04
9822;BME280;4950;46.042;14.472;2022-07-05T11:35:20;97971.84;;;27.66;55.12
9822;BME280;4950;46.042;14.472;2022-07-05T11:37:59;97968.16;;;27.62;56.57
9822;BME280;4950;46.042;14.472;2022-07-05T11:40:28;97966.03;;;27.58;55.49
9822;BME280;4950;46.042;14.472;2022-07-05T11:42:59;97961.31;;;27.50;56.13
9822;BME280;4950;46.042;14.472;2022-07-05T11:45:28;97953.03;;;27.52;56.72
9822;BME280;4950;46.042;14.472;2022-07-05T11:47:55;97957.06;;;27.73;55.13
9822;BME280;4950;46.042;14.472;2022-07-05T11:50:31;97957.50;;;27.81;54.21
9822;BME280;4950;46.042;14.472;2022-07-05T11:52:59;97947.94;;;27.80;54.42
9822;BME280;4950;46.042;14.472;2022-07-05T11:55:27;97938.00;;;27.85;54.61
9822;BME280;4950;46.042;14.472;2022-07-05T11:57:55;97927.66;;;28.03;54.87
9822;BME280;4950;46.042;14.472;2022-07-05T12:00:28;97931.25;;;28.12;54.09
9822;BME280;4950;46.042;14.472;2022-07-05T12:02:55;97932.78;;;28.18;53.64
9822;BME280;4950;46.042;14.472;2022-07-05T12:05:22;97932.16;;;28.26;53.20
9822;BME280;4950;46.042;14.472;2022-07-05T12:07:50;97930.72;;;28.34;53.03
9822;BME280;4950;46.042;14.472;2022-07-05T12:10:18;97927.66;;;28.41;52.09
9822;BME280;4950;46.042;14.472;2022-07-05T12:13:04;97937.34;;;28.36;52.28
9822;BME280;4950;46.042;14.472;2022-07-05T12:15:32;97922.09;;;28.37;52.52
9822;BME280;4950;46.042;14.472;2022-07-05T12:18:00;97921.75;;;28.25;52.92
9822;BME280;4950;46.042;14.472;2022-07-05T12:20:31;97922.97;;;28.32;53.25
9822;BME280;4950;46.042;14.472;2022-07-05T12:22:58;97918.28;;;28.43;53.01
9822;BME280;4950;46.042;14.472;2022-07-05T12:25:27;97914.75;;;28.48;53.94
9822;BME280;4950;46.042;14.472;2022-07-05T12:27:56;97912.66;;;28.64;52.66
9822;BME280;4950;46.042;14.472;2022-07-05T12:30:23;97916.78;;;28.56;52.28
9822;BME280;4950;46.042;14.472;2022-07-05T12:32:56;97909.78;;;28.60;51.46
9822;BME280;4950;46.042;14.472;2022-07-05T12:35:33;97889.59;;;28.49;51.71
9822;BME280;4950;46.042;14.472;2022-07-05T12:38:07;97880.59;;;28.45;52.27
9822;BME280;4950;46.042;14.472;2022-07-05T12:40:37;97890.13;;;28.51;51.93
9822;BME280;4950;46.042;14.472;2022-07-05T12:43:06;97883.13;;;28.55;52.08
9822;BME280;4950;46.042;14.472;2022-07-05T12:45:33;97884.44;;;28.58;52.33
9822;BME280;4950;46.042;14.472;2022-07-05T12:48:03;97886.00;;;28.59;51.64
9822;BME280;4950;46.042;14.472;2022-07-05T12:50:43;97871.47;;;28.65;51.60
9822;BME280;4950;46.042;14.472;2022-07-05T12:53:11;97882.81;;;28.75;51.45
9822;BME280;4950;46.042;14.472;2022-07-05T12:55:59;97874.53;;;28.91;49.34
9822;BME280;4950;46.042;14.472;2022-07-05T12:58:45;97870.09;;;29.00;46.56
9822;BME280;4950;46.042;14.472;2022-07-05T13:01:20;97878.94;;;29.14;46.33
9822;BME280;4950;46.042;14.472;2022-07-05T13:04:03;97874.19;;;29.25;48.59
9822;BME280;4950;46.042;14.472;2022-07-05T13:06:46;97876.38;;;29.23;48.63
9822;BME280;4950;46.042;14.472;2022-07-05T13:09:15;97874.06;;;29.03;48.93
9822;BME280;4950;46.042;14.472;2022-07-05T13:11:42;97871.75;;;28.96;49.31
9822;BME280;4950;46.042;14.472;2022-07-05T13:14:09;97873.06;;;28.99;50.04
9822;BME280;4950;46.042;14.472;2022-07-05T13:16:36;97861.25;;;29.00;49.80